sensor_id;sensor_type;location;lat;lon;timestamp;pressure;altitude;pressure_sealevel;temperature;humidity
42671;BME280;28283;55.426;37.756;2022-10-16T00:04:42;100659.53;;;3.58;73.98
42671;BME280;28283;55.426;37.756;2022-10-16T00:09:43;100646.38;;;3.46;74.28
42671;BME280;28283;55.426;37.756;2022-10-16T00:14:44;100665.34;;;3.52;74.53
42671;BME280;28283;55.426;37.756;2022-10-16T00:19:44;100668.59;;;3.44;74.70
42671;BME280;28283;55.426;37.756;2022-10-16T00:24:45;100676.56;;;3.44;74.61
42671;BME280;28283;55.426;37.756;2022-10-16T00:29:50;100669.44;;;3.34;74.90
42671;BME280;28283;55.426;37.756;2022-10-16T00:34:51;100649.91;;;3.23;75.12
42671;BME280;28283;55.426;37.756;2022-10-16T00:39:54;100643.63;;;3.13;75.08
42671;BME280;28283;55.426;37.756;2022-10-16T00:44:57;100670.91;;;3.27;75.03
42671;BME280;28283;55.426;37.756;2022-10-16T00:50:16;100668.50;;;3.23;75.37
42671;BME280;28283;55.426;37.756;2022-10-16T00:55:18;100665.09;;;3.10;75.59
42671;BME280;28283;55.426;37.756;2022-10-16T01:00:23;100679.88;;;3.14;75.54
42671;BME280;28283;55.426;37.756;2022-10-16T01:05:32;100660.53;;;3.01;75.38
42671;BME280;28283;55.426;37.756;2022-10-16T01:10:40;100678.28;;;3.12;75.45
42671;BME280;28283;55.426;37.756;2022-10-16T01:20:52;100687.81;;;3.03;76.04
42671;BME280;28283;55.426;37.756;2022-10-16T01:26:24;100684.81;;;2.96;76.19
42671;BME280;28283;55.426;37.756;2022-10-16T01:31:32;100689.25;;;2.84;76.35
42671;BME280;28283;55.426;37.756;2022-10-16T01:36:41;100688.63;;;2.81;76.63
42671;BME280;28283;55.426;37.756;2022-10-16T01:41:46;100665.28;;;2.62;76.92
42671;BME280;28283;55.426;37.756;2022-10-16T01:46:50;100686.41;;;2.63;76.74
42671;BME280;28283;55.426;37.756;2022-10-16T01:51:54;100694.16;;;2.66;76.99
42671;BME280;28283;55.426;37.756;2022-10-16T01:56:58;100690.50;;;2.56;76.82
42671;BME280;28283;55.426;37.756;2022-10-16T02:02:01;100708.25;;;2.67;76.90
42671;BME280;28283;55.426;37.756;2022-10-16T02:07:05;100715.38;;;2.66;77.09
42671;BME280;28283;55.426;37.756;2022-10-16T02:12:26;100713.81;;;2.64;77.41
42671;BME280;28283;55.426;37.756;2022-10-16T02:17:28;100705.88;;;2.64;76.61
42671;BME280;28283;55.426;37.756;2022-10-16T02:22:35;100717.53;;;2.61;77.35
42671;BME280;28283;55.426;37.756;2022-10-16T02:27:45;100723.56;;;2.63;77.20
42671;BME280;28283;55.426;37.756;2022-10-16T02:32:49;100697.47;;;2.46;77.18
42671;BME280;28283;55.426;37.756;2022-10-16T02:37:51;100689.72;;;2.32;77.55
42671;BME280;28283;55.426;37.756;2022-10-16T02:42:53;100704.47;;;2.47;77.06
42671;BME280;28283;55.426;37.756;2022-10-16T02:47:54;100711.69;;;2.45;77.60
42671;BME280;28283;55.426;37.756;2022-10-16T02:52:55;100724.13;;;2.44;77.53
42671;BME280;28283;55.426;37.756;2022-10-16T02:57:56;100675.41;;;2.10;77.58
42671;BME280;28283;55.426;37.756;2022-10-16T03:02:56;100690.63;;;2.19;77.54
42671;BME280;28283;55.426;37.756;2022-10-16T03:07:57;100731.66;;;2.26;77.64
42671;BME280;28283;55.426;37.756;2022-10-16T03:13:00;100722.47;;;2.19;77.98
42671;BME280;28283;55.426;37.756;2022-10-16T03:18:00;100719.28;;;2.14;78.24
42671;BME280;28283;55.426;37.756;2022-10-16T03:23:01;100704.28;;;2.02;77.88
42671;BME280;28283;55.426;37.756;2022-10-16T03:28:02;100747.84;;;2.35;77.42
42671;BME280;28283;55.426;37.756;2022-10-16T03:33:03;100758.63;;;2.20;78.50
42671;BME280;28283;55.426;37.756;2022-10-16T03:38:04;100713.84;;;1.91;78.36
42671;BME280;28283;55.426;37.756;2022-10-16T03:43:04;100718.78;;;1.85;78.23
42671;BME280;28283;55.426;37.756;2022-10-16T03:48:05;100758.78;;;2.06;79.09
42671;BME280;28283;55.426;37.756;2022-10-16T03:53:07;100757.31;;;2.02;78.97
42671;BME280;28283;55.426;37.756;2022-10-16T03:58:08;100757.31;;;2.02;78.57
42671;BME280;28283;55.426;37.756;2022-10-16T04:03:09;100747.28;;;1.94;79.00
42671;BME280;28283;55.426;37.756;2022-10-16T04:08:10;100734.47;;;1.75;79.17
42671;BME280;28283;55.426;37.756;2022-10-16T04:13:11;100755.53;;;1.89;79.44
42671;BME280;28283;55.426;37.756;2022-10-16T04:18:12;100745.72;;;1.79;79.54
42671;BME280;28283;55.426;37.756;2022-10-16T04:23:13;100749.72;;;1.84;79.23
42671;BME280;28283;55.426;37.756;2022-10-16T04:28:14;100778.78;;;1.86;79.47
42671;BME280;28283;55.426;37.756;2022-10-16T04:33:15;100756.41;;;1.77;79.66
42671;BME280;28283;55.426;37.756;2022-10-16T04:38:16;100749.44;;;1.76;79.52
42671;BME280;28283;55.426;37.756;2022-10-16T04:43:16;100760.78;;;1.78;79.43
42671;BME280;28283;55.426;37.756;2022-10-16T04:48:18;100758.88;;;1.80;79.31
42671;BME280;28283;55.426;37.756;2022-10-16T04:53:18;100774.53;;;1.96;79.50
42671;BME280;28283;55.426;37.756;2022-10-16T04:58:19;100695.56;;;1.39;79.84
42671;BME280;28283;55.426;37.756;2022-10-16T05:03:20;100742.75;;;1.83;79.72
42671;BME280;28283;55.426;37.756;2022-10-16T05:08:21;100759.91;;;2.15;79.36
42671;BME280;28283;55.426;37.756;2022-10-16T05:13:21;100779.88;;;2.44;78.73
42671;BME280;28283;55.426;37.756;2022-10-16T05:18:23;100790.38;;;2.46;78.60
42671;BME280;28283;55.426;37.756;2022-10-16T05:23:24;100752.78;;;2.28;78.55
42671;BME280;28283;55.426;37.756;2022-10-16T05:28:26;100789.97;;;2.39;78.71
42671;BME280;28283;55.426;37.756;2022-10-16T05:33:27;100786.47;;;2.39;78.92
42671;BME280;28283;55.426;37.756;2022-10-16T05:38:28;100777.28;;;2.32;79.01
42671;BME280;28283;55.426;37.756;2022-10-16T05:43:29;100788.97;;;2.53;78.54
42671;BME280;28283;55.426;37.756;2022-10-16T05:48:30;100796.56;;;2.82;78.40
42671;BME280;28283;55.426;37.756;2022-10-16T05:53:34;100799.69;;;2.87;77.99
42671;BME280;28283;55.426;37.756;2022-10-16T05:58:37;100815.13;;;3.17;77.88
42671;BME280;28283;55.426;37.756;2022-10-16T06:03:38;100814.44;;;3.38;77.06
42671;BME280;28283;55.426;37.756;2022-10-16T06:08:39;100810.59;;;3.65;77.00
42671;BME280;28283;55.426;37.756;2022-10-16T06:13:40;100800.31;;;3.60;76.62
42671;BME280;28283;55.426;37.756;2022-10-16T06:18:42;100819.44;;;3.88;76.71
42671;BME280;28283;55.426;37.756;2022-10-16T06:23:43;100779.66;;;3.86;75.59
42671;BME280;28283;55.426;37.756;2022-10-16T06:28:46;100764.28;;;4.01;75.35
42671;BME280;28283;55.426;37.756;2022-10-16T06:33:50;100804.03;;;4.57;74.51
42671;BME280;28283;55.426;37.756;2022-10-16T06:38:51;100820.47;;;4.95;73.23
42671;BME280;28283;55.426;37.756;2022-10-16T06:43:52;100825.13;;;5.14;71.96
42671;BME280;28283;55.426;37.756;2022-10-16T06:48:53;100811.91;;;5.12;71.08
42671;BME280;28283;55.426;37.756;2022-10-16T06:53:55;100829.34;;;5.38;70.80
42671;BME280;28283;55.426;37.756;2022-10-16T06:58:59;100827.41;;;5.70;69.32
42671;BME280;28283;55.426;37.756;2022-10-16T07:04:00;100825.75;;;5.79;69.45
42671;BME280;28283;55.426;37.756;2022-10-16T07:09:03;100826.41;;;5.92;68.85
42671;BME280;28283;55.426;37.756;2022-10-16T07:14:05;100831.66;;;6.04;69.31
42671;BME280;28283;55.426;37.756;2022-10-16T07:19:10;100839.22;;;6.39;67.10
42671;BME280;28283;55.426;37.756;2022-10-16T07:24:15;100836.72;;;6.57;65.81
42671;BME280;28283;55.426;37.756;2022-10-16T07:29:19;100836.19;;;6.73;66.06
42671;BME280;28283;55.426;37.756;2022-10-16T07:34:20;100813.09;;;6.72;65.27
42671;BME280;28283;55.426;37.756;2022-10-16T07:39:22;100836.31;;;7.01;64.61
42671;BME280;28283;55.426;37.756;2022-10-16T07:44:23;100851.94;;;7.25;63.60
42671;BME280;28283;55.426;37.756;2022-10-16T07:49:23;100836.69;;;7.45;63.37
42671;BME280;28283;55.426;37.756;2022-10-16T07:54:24;100842.00;;;7.64;62.21
42671;BME280;28283;55.426;37.756;2022-10-16T07:59:25;100762.34;;;7.39;61.38
42671;BME280;28283;55.426;37.756;2022-10-16T08:04:25;100796.38;;;7.56;61.30
42671;BME280;28283;55.426;37.756;2022-10-16T08:09:26;100848.16;;;8.12;60.72
42671;BME280;28283;55.426;37.756;2022-10-16T08:14:27;100811.88;;;8.18;59.66
42671;BME280;28283;55.426;37.756;2022-10-16T08:19:28;100793.78;;;8.30;58.36
42671;BME280;28283;55.426;37.756;2022-10-16T08:24:28;100828.94;;;8.72;57.19
42671;BME280;28283;55.426;37.756;2022-10-16T08:29:31;100805.63;;;8.73;57.65
42671;BME280;28283;55.426;37.756;2022-10-16T08:34:32;100811.53;;;8.76;56.65
42671;BME280;28283;55.426;37.756;2022-10-16T08:39:33;100819.72;;;8.93;56.54
42671;BME280;28283;55.426;37.756;2022-10-16T08:49:56;100821.78;;;9.43;54.61
42671;BME280;28283;55.426;37.756;2022-10-16T08:54:57;100814.69;;;9.34;54.39
42671;BME280;28283;55.426;37.756;2022-10-16T09:00:12;100835.38;;;9.68;55.40
42671;BME280;28283;55.426;37.756;2022-10-16T09:05:34;100812.81;;;9.87;54.40
42671;BME280;28283;55.426;37.756;2022-10-16T09:16:26;100821.78;;;10.04;53.42
42671;BME280;28283;55.426;37.756;2022-10-16T09:21:29;100814.66;;;10.29;52.39
42671;BME280;28283;55.426;37.756;2022-10-16T09:26:30;100798.66;;;10.54;50.17
42671;BME280;28283;55.426;37.756;2022-10-16T09:31:31;100809.22;;;10.55;51.18
42671;BME280;28283;55.426;37.756;2022-10-16T09:36:40;100822.22;;;11.01;49.58
42671;BME280;28283;55.426;37.756;2022-10-16T09:41:44;100817.84;;;11.00;49.01
42671;BME280;28283;55.426;37.756;2022-10-16T09:46:45;100751.59;;;10.58;47.88
42671;BME280;28283;55.426;37.756;2022-10-16T09:51:46;100779.34;;;10.83;48.59
42671;BME280;28283;55.426;37.756;2022-10-16T09:56:48;100807.91;;;11.25;48.18
42671;BME280;28283;55.426;37.756;2022-10-16T10:01:54;100751.44;;;11.00;48.24
42671;BME280;28283;55.426;37.756;2022-10-16T10:06:57;100795.63;;;11.47;47.99
42671;BME280;28283;55.426;37.756;2022-10-16T10:12:02;100806.91;;;11.98;46.43
42671;BME280;28283;55.426;37.756;2022-10-16T10:38:45;100797.72;;;12.55;45.00
42671;BME280;28283;55.426;37.756;2022-10-16T10:54:51;100748.97;;;12.80;44.84
42671;BME280;28283;55.426;37.756;2022-10-16T11:00:21;100773.13;;;13.34;44.29
42671;BME280;28283;55.426;37.756;2022-10-16T11:10:52;100782.56;;;13.53;43.13
42671;BME280;28283;55.426;37.756;2022-10-16T11:15:58;100763.75;;;13.60;43.05
42671;BME280;28283;55.426;37.756;2022-10-16T11:21:08;100732.25;;;13.67;43.58
42671;BME280;28283;55.426;37.756;2022-10-16T11:26:21;100738.13;;;13.86;42.39
42671;BME280;28283;55.426;37.756;2022-10-16T11:31:40;100756.97;;;14.30;42.12
42671;BME280;28283;55.426;37.756;2022-10-16T11:36:45;100752.59;;;14.51;41.38
42671;BME280;28283;55.426;37.756;2022-10-16T11:41:50;100705.84;;;14.36;41.16
42671;BME280;28283;55.426;37.756;2022-10-16T11:47:06;100747.81;;;14.96;41.16
42671;BME280;28283;55.426;37.756;2022-10-16T11:52:19;100735.44;;;15.08;40.27
42671;BME280;28283;55.426;37.756;2022-10-16T11:57:22;100739.91;;;15.51;40.95
42671;BME280;28283;55.426;37.756;2022-10-16T12:03:00;100745.38;;;15.30;40.67
42671;BME280;28283;55.426;37.756;2022-10-16T12:08:22;100729.34;;;14.78;41.37
42671;BME280;28283;55.426;37.756;2022-10-16T12:13:29;100735.63;;;14.42;40.60
42671;BME280;28283;55.426;37.756;2022-10-16T12:18:30;100738.22;;;14.29;40.85
42671;BME280;28283;55.426;37.756;2022-10-16T12:23:32;100689.72;;;14.27;40.06
42671;BME280;28283;55.426;37.756;2022-10-16T12:28:33;100737.84;;;13.81;40.92
42671;BME280;28283;55.426;37.756;2022-10-16T12:33:36;100740.47;;;13.59;41.50
42671;BME280;28283;55.426;37.756;2022-10-16T12:38:49;100723.03;;;13.32;42.04
42671;BME280;28283;55.426;37.756;2022-10-16T12:43:50;100698.78;;;12.94;42.44
42671;BME280;28283;55.426;37.756;2022-10-16T12:48:51;100731.72;;;13.04;43.50
42671;BME280;28283;55.426;37.756;2022-10-16T12:54:22;100731.47;;;13.14;43.53
42671;BME280;28283;55.426;37.756;2022-10-16T13:09:48;100730.31;;;12.70;43.58
42671;BME280;28283;55.426;37.756;2022-10-16T13:15:22;100746.03;;;12.67;43.99
42671;BME280;28283;55.426;37.756;2022-10-16T13:20:31;100746.94;;;12.36;44.69
42671;BME280;28283;55.426;37.756;2022-10-16T13:30:43;100725.19;;;12.37;44.75
42671;BME280;28283;55.426;37.756;2022-10-16T13:35:50;100737.03;;;11.97;46.04
42671;BME280;28283;55.426;37.756;2022-10-16T13:41:03;100730.53;;;11.83;46.25
42671;BME280;28283;55.426;37.756;2022-10-16T13:46:24;100741.97;;;11.77;46.55
42671;BME280;28283;55.426;37.756;2022-10-16T13:51:26;100718.84;;;11.51;46.39
42671;BME280;28283;55.426;37.756;2022-10-16T13:56:29;100732.16;;;11.44;47.72
42671;BME280;28283;55.426;37.756;2022-10-16T14:01:33;100740.78;;;11.32;48.11
42671;BME280;28283;55.426;37.756;2022-10-16T14:06:36;100745.16;;;11.24;48.70
42671;BME280;28283;55.426;37.756;2022-10-16T14:11:48;100742.16;;;11.11;49.23
42671;BME280;28283;55.426;37.756;2022-10-16T14:16:49;100723.69;;;10.83;49.75
42671;BME280;28283;55.426;37.756;2022-10-16T14:21:51;100737.50;;;10.80;49.35
42671;BME280;28283;55.426;37.756;2022-10-16T14:26:52;100716.13;;;10.54;49.88
42671;BME280;28283;55.426;37.756;2022-10-16T14:32:03;100729.53;;;10.46;50.58
42671;BME280;28283;55.426;37.756;2022-10-16T14:37:24;100741.97;;;10.39;50.76
42671;BME280;28283;55.426;37.756;2022-10-16T14:42:25;100703.25;;;9.99;50.97
42671;BME280;28283;55.426;37.756;2022-10-16T14:47:26;100703.50;;;9.79;51.42
42671;BME280;28283;55.426;37.756;2022-10-16T14:52:27;100746.19;;;9.90;51.65
42671;BME280;28283;55.426;37.756;2022-10-16T14:57:31;100750.34;;;9.77;52.50
42671;BME280;28283;55.426;37.756;2022-10-16T15:02:35;100711.22;;;9.40;52.31
42671;BME280;28283;55.426;37.756;2022-10-16T15:07:37;100717.88;;;9.27;53.12
42671;BME280;28283;55.426;37.756;2022-10-16T15:12:37;100740.88;;;9.30;53.40
42671;BME280;28283;55.426;37.756;2022-10-16T15:17:38;100731.72;;;9.14;53.80
42671;BME280;28283;55.426;37.756;2022-10-16T15:22:39;100746.81;;;9.15;53.84
42671;BME280;28283;55.426;37.756;2022-10-16T15:27:39;100735.44;;;8.95;53.69
42671;BME280;28283;55.426;37.756;2022-10-16T15:32:40;100714.34;;;8.74;54.30
42671;BME280;28283;55.426;37.756;2022-10-16T15:37:41;100740.50;;;8.81;54.99
42671;BME280;28283;55.426;37.756;2022-10-16T15:42:42;100726.34;;;8.70;55.39
42671;BME280;28283;55.426;37.756;2022-10-16T15:47:42;100747.44;;;8.65;55.09
42671;BME280;28283;55.426;37.756;2022-10-16T15:52:43;100740.28;;;8.56;55.94
42671;BME280;28283;55.426;37.756;2022-10-16T15:57:45;100741.53;;;8.44;55.82
42671;BME280;28283;55.426;37.756;2022-10-16T16:02:50;100662.09;;;7.89;56.34
42671;BME280;28283;55.426;37.756;2022-10-16T16:07:52;100746.16;;;8.23;56.63
42671;BME280;28283;55.426;37.756;2022-10-16T16:12:53;100744.22;;;8.16;56.78
42671;BME280;28283;55.426;37.756;2022-10-16T16:17:53;100740.94;;;8.04;57.32
42671;BME280;28283;55.426;37.756;2022-10-16T16:22:54;100745.78;;;7.91;57.66
42671;BME280;28283;55.426;37.756;2022-10-16T16:27:55;100722.47;;;7.73;57.77
42671;BME280;28283;55.426;37.756;2022-10-16T16:32:55;100711.69;;;7.65;57.95
42671;BME280;28283;55.426;37.756;2022-10-16T16:37:56;100686.72;;;7.47;58.36
42671;BME280;28283;55.426;37.756;2022-10-16T16:42:57;100715.22;;;7.65;58.76
42671;BME280;28283;55.426;37.756;2022-10-16T16:47:57;100735.25;;;7.61;59.15
42671;BME280;28283;55.426;37.756;2022-10-16T16:52:58;100717.41;;;7.42;59.60
42671;BME280;28283;55.426;37.756;2022-10-16T16:57:59;100737.09;;;7.51;59.15
42671;BME280;28283;55.426;37.756;2022-10-16T17:03:00;100735.59;;;7.39;59.71
42671;BME280;28283;55.426;37.756;2022-10-16T17:08:01;100738.75;;;7.24;60.41
42671;BME280;28283;55.426;37.756;2022-10-16T17:13:01;100746.09;;;7.13;60.17
42671;BME280;28283;55.426;37.756;2022-10-16T17:18:02;100749.06;;;7.10;60.37
42671;BME280;28283;55.426;37.756;2022-10-16T17:23:03;100724.88;;;6.92;61.14
42671;BME280;28283;55.426;37.756;2022-10-16T17:28:04;100648.34;;;6.34;61.48
42671;BME280;28283;55.426;37.756;2022-10-16T17:33:06;100752.91;;;6.87;61.50
42671;BME280;28283;55.426;37.756;2022-10-16T17:38:07;100739.41;;;6.79;61.85
42671;BME280;28283;55.426;37.756;2022-10-16T17:43:08;100735.75;;;6.71;61.10
42671;BME280;28283;55.426;37.756;2022-10-16T17:48:09;100712.25;;;6.55;61.59
42671;BME280;28283;55.426;37.756;2022-10-16T17:53:09;100726.19;;;6.58;61.27
42671;BME280;28283;55.426;37.756;2022-10-16T17:58:10;100747.41;;;6.60;61.87
42671;BME280;28283;55.426;37.756;2022-10-16T18:03:11;100750.09;;;6.50;62.13
42671;BME280;28283;55.426;37.756;2022-10-16T18:08:11;100696.09;;;6.17;61.92
42671;BME280;28283;55.426;37.756;2022-10-16T18:13:13;100754.88;;;6.46;61.62
42671;BME280;28283;55.426;37.756;2022-10-16T18:18:14;100748.84;;;6.44;61.97
42671;BME280;28283;55.426;37.756;2022-10-16T18:23:14;100711.41;;;6.15;62.20
42671;BME280;28283;55.426;37.756;2022-10-16T18:28:15;100677.53;;;5.96;62.11
42671;BME280;28283;55.426;37.756;2022-10-16T18:33:16;100763.00;;;6.35;61.88
42671;BME280;28283;55.426;37.756;2022-10-16T18:38:19;100737.13;;;6.16;62.70
42671;BME280;28283;55.426;37.756;2022-10-16T18:43:20;100748.78;;;6.15;63.08
42671;BME280;28283;55.426;37.756;2022-10-16T18:48:21;100680.56;;;5.82;63.06
42671;BME280;28283;55.426;37.756;2022-10-16T18:53:21;100749.66;;;6.16;63.18
42671;BME280;28283;55.426;37.756;2022-10-16T18:58:22;100720.25;;;5.96;63.34
42671;BME280;28283;55.426;37.756;2022-10-16T19:03:23;100743.16;;;6.08;63.02
42671;BME280;28283;55.426;37.756;2022-10-16T19:08:24;100754.25;;;6.04;63.22
42671;BME280;28283;55.426;37.756;2022-10-16T19:13:24;100740.00;;;5.93;63.33
42671;BME280;28283;55.426;37.756;2022-10-16T19:18:28;100743.53;;;5.94;63.43
42671;BME280;28283;55.426;37.756;2022-10-16T19:23:37;100736.44;;;5.73;63.83
42671;BME280;28283;55.426;37.756;2022-10-16T19:28:40;100724.22;;;5.71;64.08
42671;BME280;28283;55.426;37.756;2022-10-16T19:33:41;100723.78;;;5.66;64.09
42671;BME280;28283;55.426;37.756;2022-10-16T19:38:42;100681.00;;;5.37;64.33
42671;BME280;28283;55.426;37.756;2022-10-16T19:43:44;100738.66;;;5.68;64.15
42671;BME280;28283;55.426;37.756;2022-10-16T19:48:46;100738.41;;;5.71;64.09
42671;BME280;28283;55.426;37.756;2022-10-16T19:53:47;100727.13;;;5.58;64.68
42671;BME280;28283;55.426;37.756;2022-10-16T19:58:49;100686.16;;;5.28;64.97
42671;BME280;28283;55.426;37.756;2022-10-16T20:03:51;100697.00;;;5.37;65.14
42671;BME280;28283;55.426;37.756;2022-10-16T20:08:52;100735.59;;;5.73;63.83
42671;BME280;28283;55.426;37.756;2022-10-16T20:13:53;100724.59;;;5.57;65.03
42671;BME280;28283;55.426;37.756;2022-10-16T20:18:54;100741.75;;;5.64;64.71
42671;BME280;28283;55.426;37.756;2022-10-16T20:23:55;100718.81;;;5.51;64.80
42671;BME280;28283;55.426;37.756;2022-10-16T20:28:56;100736.66;;;5.61;65.32
42671;BME280;28283;55.426;37.756;2022-10-16T20:33:59;100718.94;;;5.50;65.17
42671;BME280;28283;55.426;37.756;2022-10-16T20:39:01;100727.38;;;5.55;65.59
42671;BME280;28283;55.426;37.756;2022-10-16T20:44:02;100702.34;;;5.37;65.27
42671;BME280;28283;55.426;37.756;2022-10-16T20:49:03;100725.78;;;5.43;65.59
42671;BME280;28283;55.426;37.756;2022-10-16T20:54:05;100688.06;;;5.16;65.66
42671;BME280;28283;55.426;37.756;2022-10-16T20:59:07;100718.06;;;5.40;66.16
42671;BME280;28283;55.426;37.756;2022-10-16T21:04:08;100682.34;;;5.21;65.96
42671;BME280;28283;55.426;37.756;2022-10-16T21:09:09;100675.41;;;5.09;65.65
42671;BME280;28283;55.426;37.756;2022-10-16T21:14:10;100707.38;;;5.40;65.98
42671;BME280;28283;55.426;37.756;2022-10-16T21:19:10;100696.44;;;5.33;66.06
42671;BME280;28283;55.426;37.756;2022-10-16T21:24:11;100638.56;;;4.93;66.13
42671;BME280;28283;55.426;37.756;2022-10-16T21:29:13;100711.31;;;5.35;65.96
42671;BME280;28283;55.426;37.756;2022-10-16T21:34:13;100666.25;;;5.02;66.15
42671;BME280;28283;55.426;37.756;2022-10-16T21:39:17;100693.97;;;5.20;65.88
42671;BME280;28283;55.426;37.756;2022-10-16T21:44:18;100721.53;;;5.30;66.28
42671;BME280;28283;55.426;37.756;2022-10-16T21:49:19;100717.78;;;5.43;65.69
42671;BME280;28283;55.426;37.756;2022-10-16T21:54:22;100681.69;;;5.08;66.01
42671;BME280;28283;55.426;37.756;2022-10-16T21:59:23;100692.81;;;5.13;66.28
42671;BME280;28283;55.426;37.756;2022-10-16T22:04:23;100649.09;;;4.94;66.45
42671;BME280;28283;55.426;37.756;2022-10-16T22:09:24;100689.88;;;5.16;66.49
42671;BME280;28283;55.426;37.756;2022-10-16T22:14:25;100675.22;;;5.01;66.17
42671;BME280;28283;55.426;37.756;2022-10-16T22:19:25;100686.78;;;5.11;66.82
42671;BME280;28283;55.426;37.756;2022-10-16T22:24:27;100709.22;;;5.39;65.70
42671;BME280;28283;55.426;37.756;2022-10-16T22:29:27;100711.13;;;5.27;66.81
42671;BME280;28283;55.426;37.756;2022-10-16T22:34:28;100706.31;;;5.21;66.45
42671;BME280;28283;55.426;37.756;2022-10-16T22:39:29;100692.28;;;5.19;66.48
42671;BME280;28283;55.426;37.756;2022-10-16T22:44:30;100708.00;;;5.22;66.68
42671;BME280;28283;55.426;37.756;2022-10-16T22:49:31;100681.28;;;5.03;66.89
42671;BME280;28283;55.426;37.756;2022-10-16T22:54:32;100682.13;;;5.03;66.54
42671;BME280;28283;55.426;37.756;2022-10-16T22:59:32;100705.63;;;5.19;66.66
42671;BME280;28283;55.426;37.756;2022-10-16T23:04:33;100707.03;;;5.23;66.25
42671;BME280;28283;55.426;37.756;2022-10-16T23:09:34;100690.44;;;5.10;66.76
42671;BME280;28283;55.426;37.756;2022-10-16T23:14:34;100644.31;;;4.88;66.59
42671;BME280;28283;55.426;37.756;2022-10-16T23:19:35;100691.75;;;5.25;66.56
42671;BME280;28283;55.426;37.756;2022-10-16T23:24:36;100649.13;;;5.04;66.34
42671;BME280;28283;55.426;37.756;2022-10-16T23:29:36;100664.94;;;5.17;65.98
42671;BME280;28283;55.426;37.756;2022-10-16T23:34:37;100675.31;;;5.20;66.09
42671;BME280;28283;55.426;37.756;2022-10-16T23:39:38;100654.28;;;5.17;65.95
42671;BME280;28283;55.426;37.756;2022-10-16T23:44:38;100646.09;;;5.09;66.19
42671;BME280;28283;55.426;37.756;2022-10-16T23:49:39;100667.75;;;5.25;66.06
42671;BME280;28283;55.426;37.756;2022-10-16T23:54:40;100634.28;;;5.02;66.68
42671;BME280;28283;55.426;37.756;2022-10-16T23:59:40;100658.16;;;5.13;66.07
